Time,TemperatureF,DewpointF,PressureIn,WindDirection,WindDirectionDegrees,WindSpeedMPH,WindSpeedGustMPH,Humidity,HourlyPrecipIn,Conditions,Clouds,dailyrainin,SolarRadiationWatts/m^2,SoftwareType,DateUTC
2013-04-06 00:02:00,46.0,45.0,-100.00,NNW,340,4.0,6.0,96,0.00,,,-99.99,0.000000,,2013-04-06 07:02:00,
2013-04-06 00:11:00,46.0,45.0,-100.00,WNW,288,4.0,6.0,98,0.00,,,-99.99,0.000000,,2013-04-06 07:11:00,
2013-04-06 00:33:00,46.0,45.0,-100.00,WNW,288,4.0,6.0,98,0.00,,,-99.99,0.000000,,2013-04-06 07:33:00,
2013-04-06 00:44:00,46.0,45.0,-100.00,WNW,288,4.0,6.0,98,0.00,,,-99.99,0.000000,,2013-04-06 07:44:00,
2013-04-06 00:53:00,46.0,45.0,-100.00,WNW,288,4.0,6.0,98,0.00,,,-99.99,0.000000,,2013-04-06 07:53:00,
2013-04-06 01:02:00,46.0,45.0,-100.00,WNW,288,4.0,6.0,98,0.00,,,-99.99,0.000000,,2013-04-06 08:02:00,
2013-04-06 01:11:00,47.0,45.0,-100.00,NNW,334,3.0,6.0,94,0.00,,,0.00,0.000000,,2013-04-06 08:11:00,
2013-04-06 01:42:00,47.0,45.0,-100.00,NNW,334,3.0,6.0,94,0.00,,,0.00,0.000000,,2013-04-06 08:42:00,
2013-04-06 01:52:00,47.0,45.0,-100.00,NNW,334,3.0,6.0,94,0.00,,,0.00,0.000000,,2013-04-06 08:52:00,
2013-04-06 02:02:00,47.0,45.0,-100.00,NNW,334,3.0,6.0,94,0.00,,,0.00,0.000000,,2013-04-06 09:02:00,
2013-04-06 02:11:00,46.0,44.0,-100.00,SW,235,1.0,5.0,93,0.00,,,0.00,0.000000,,2013-04-06 09:11:00,
2013-04-06 02:43:00,46.0,44.0,-100.00,SW,235,1.0,5.0,93,0.00,,,0.00,0.000000,,2013-04-06 09:43:00,
2013-04-06 02:53:00,46.0,44.0,-100.00,SW,235,1.0,5.0,93,0.00,,,0.00,0.000000,,2013-04-06 09:53:00,
2013-04-06 03:02:00,46.0,44.0,-100.00,SW,235,1.0,5.0,93,0.00,,,0.00,0.000000,,2013-04-06 10:02:00,
2013-04-06 03:11:00,44.0,43.0,-100.00,North,353,2.0,3.0,97,0.00,,,0.00,0.000000,,2013-04-06 10:11:00,
2013-04-06 03:33:00,44.0,43.0,-100.00,North,353,2.0,3.0,97,0.00,,,0.00,0.000000,,2013-04-06 10:33:00,
2013-04-06 03:43:00,44.0,43.0,-100.00,North,353,2.0,3.0,97,0.00,,,0.00,0.000000,,2013-04-06 10:43:00,
2013-04-06 03:53:00,44.0,43.0,-100.00,North,353,2.0,3.0,97,0.00,,,0.00,0.000000,,2013-04-06 10:53:00,
2013-04-06 04:02:00,44.0,43.0,-100.00,North,353,2.0,3.0,97,0.00,,,0.00,0.000000,,2013-04-06 11:02:00,
2013-04-06 04:11:00,44.0,42.0,-100.00,SSE,147,1.0,4.0,93,0.00,,,0.00,0.000000,,2013-04-06 11:11:00,
2013-04-06 04:33:00,44.0,42.0,-100.00,SSE,147,1.0,4.0,93,0.00,,,0.00,0.000000,,2013-04-06 11:33:00,
2013-04-06 04:43:00,44.0,42.0,-100.00,SSE,147,1.0,4.0,93,0.00,,,0.00,0.000000,,2013-04-06 11:43:00,
2013-04-06 04:52:00,44.0,42.0,-100.00,SSE,147,1.0,4.0,93,0.00,,,0.00,0.000000,,2013-04-06 11:52:00,
2013-04-06 05:02:00,44.0,42.0,-100.00,SSE,147,1.0,4.0,93,0.00,,,0.00,0.000000,,2013-04-06 12:02:00,
2013-04-06 05:11:00,42.0,41.0,-100.00,NW,314,2.0,8.0,97,0.00,,,-99.99,0.000000,,2013-04-06 12:11:00,
2013-04-06 05:33:00,42.0,41.0,-100.00,NW,314,2.0,8.0,97,0.00,,,-99.99,0.000000,,2013-04-06 12:33:00,
2013-04-06 05:44:00,42.0,41.0,-100.00,NW,314,2.0,8.0,97,0.00,,,-99.99,0.000000,,2013-04-06 12:44:00,
2013-04-06 05:52:00,42.0,41.0,-100.00,NW,314,2.0,8.0,97,0.00,,,-99.99,0.000000,,2013-04-06 12:52:00,
2013-04-06 06:02:00,42.0,41.0,-100.00,NW,314,2.0,8.0,97,0.00,,,-99.99,0.000000,,2013-04-06 13:02:00,
2013-04-06 06:11:00,43.0,42.0,-100.00,NE,49,2.0,4.0,97,0.00,,,0.00,0.000000,,2013-04-06 13:11:00,
2013-04-06 06:33:00,43.0,42.0,-100.00,NE,49,2.0,4.0,97,0.00,,,0.00,0.000000,,2013-04-06 13:33:00,
2013-04-06 06:43:00,43.0,42.0,-100.00,NE,49,2.0,4.0,97,0.00,,,0.00,0.000000,,2013-04-06 13:43:00,
2013-04-06 06:53:00,43.0,42.0,-100.00,NE,49,2.0,4.0,97,0.00,,,0.00,0.000000,,2013-04-06 13:53:00,
2013-04-06 07:03:00,43.0,42.0,-100.00,NE,49,2.0,4.0,97,0.00,,,0.00,0.000000,,2013-04-06 14:03:00,
2013-04-06 07:11:00,44.0,43.0,-100.00,East,84,1.0,3.0,96,0.00,,,-99.99,6.000000,,2013-04-06 14:11:00,
2013-04-06 07:43:00,44.0,43.0,-100.00,East,84,1.0,3.0,96,0.00,,,-99.99,6.000000,,2013-04-06 14:43:00,
2013-04-06 07:53:00,44.0,43.0,-100.00,East,84,1.0,3.0,96,0.00,,,-99.99,6.000000,,2013-04-06 14:53:00,
2013-04-06 08:02:00,44.0,43.0,-100.00,East,84,1.0,3.0,96,0.00,,,-99.99,6.000000,,2013-04-06 15:02:00,
2013-04-06 08:11:00,48.0,46.0,-100.00,NW,306,3.0,4.0,92,0.00,,,-99.99,94.000000,,2013-04-06 15:11:00,
2013-04-06 08:33:00,48.0,46.0,-100.00,NW,306,3.0,4.0,92,0.00,,,-99.99,94.000000,,2013-04-06 15:33:00,
2013-04-06 08:43:00,48.0,46.0,-100.00,NW,306,3.0,4.0,92,0.00,,,-99.99,94.000000,,2013-04-06 15:43:00,
2013-04-06 08:53:00,48.0,46.0,-100.00,NW,306,3.0,4.0,92,0.00,,,-99.99,94.000000,,2013-04-06 15:53:00,
2013-04-06 09:04:00,48.0,46.0,-100.00,NW,306,3.0,4.0,92,0.00,,,-99.99,94.000000,,2013-04-06 16:04:00,
2013-04-06 09:11:00,55.0,46.0,-100.00,NW,310,8.0,11.0,72,0.00,,,0.00,304.000000,,2013-04-06 16:11:00,
2013-04-06 09:33:00,55.0,46.0,-100.00,NW,310,8.0,11.0,72,0.00,,,0.00,304.000000,,2013-04-06 16:33:00,
2013-04-06 09:43:00,55.0,46.0,-100.00,NW,310,8.0,11.0,72,0.00,,,0.00,304.000000,,2013-04-06 16:43:00,
2013-04-06 09:53:00,55.0,46.0,-100.00,NW,310,8.0,11.0,72,0.00,,,0.00,304.000000,,2013-04-06 16:53:00,
2013-04-06 10:02:00,55.0,46.0,-100.00,NW,310,8.0,11.0,72,0.00,,,0.00,304.000000,,2013-04-06 17:02:00,
2013-04-06 10:11:00,57.0,44.0,-100.00,NW,308,11.0,15.0,61,0.00,,,0.00,516.000000,,2013-04-06 17:11:00,
2013-04-06 10:33:00,57.0,44.0,-100.00,NW,308,11.0,15.0,61,0.00,,,0.00,516.000000,,2013-04-06 17:33:00,
2013-04-06 10:43:00,57.0,44.0,-100.00,NW,308,11.0,15.0,61,0.00,,,0.00,516.000000,,2013-04-06 17:43:00,
2013-04-06 10:52:00,57.0,44.0,-100.00,NW,308,11.0,15.0,61,0.00,,,0.00,516.000000,,2013-04-06 17:52:00,
2013-04-06 11:02:00,57.0,44.0,-100.00,NW,308,11.0,15.0,61,0.00,,,0.00,516.000000,,2013-04-06 18:02:00,
2013-04-06 11:11:00,60.0,47.0,-100.00,NW,305,11.0,19.0,63,0.00,,,0.00,695.000000,,2013-04-06 18:11:00,
2013-04-06 11:43:00,60.0,47.0,-100.00,NW,305,11.0,19.0,63,0.00,,,0.00,695.000000,,2013-04-06 18:43:00,
2013-04-06 11:52:00,60.0,47.0,-100.00,NW,305,11.0,19.0,63,0.00,,,0.00,695.000000,,2013-04-06 18:52:00,
2013-04-06 12:02:00,60.0,47.0,-100.00,NW,305,11.0,19.0,63,0.00,,,0.00,695.000000,,2013-04-06 19:02:00,
2013-04-06 12:11:00,61.0,48.0,-100.00,WNW,289,11.0,17.0,63,0.00,,,0.00,811.000000,,2013-04-06 19:11:00,
2013-04-06 12:33:00,61.0,48.0,-100.00,WNW,289,11.0,17.0,63,0.00,,,0.00,811.000000,,2013-04-06 19:33:00,
2013-04-06 12:42:00,61.0,48.0,-100.00,WNW,289,11.0,17.0,63,0.00,,,0.00,811.000000,,2013-04-06 19:42:00,
2013-04-06 12:53:00,61.0,48.0,-100.00,WNW,289,11.0,17.0,63,0.00,,,0.00,811.000000,,2013-04-06 19:53:00,
2013-04-06 13:02:00,61.0,48.0,-100.00,WNW,289,11.0,17.0,63,0.00,,,0.00,811.000000,,2013-04-06 20:02:00,
2013-04-06 13:11:00,60.0,48.0,-100.00,WNW,299,12.0,20.0,65,0.00,,,0.00,511.000000,,2013-04-06 20:11:00,
2013-04-06 13:42:00,60.0,48.0,-100.00,WNW,299,12.0,20.0,65,0.00,,,0.00,511.000000,,2013-04-06 20:42:00,
2013-04-06 13:52:00,60.0,48.0,-100.00,WNW,299,12.0,20.0,65,0.00,,,0.00,511.000000,,2013-04-06 20:52:00,
2013-04-06 14:02:00,60.0,48.0,-100.00,WNW,299,12.0,20.0,65,0.00,,,0.00,511.000000,,2013-04-06 21:02:00,
2013-04-06 14:11:00,61.0,50.0,-100.00,NW,313,9.0,17.0,67,0.00,,,0.00,449.000000,,2013-04-06 21:11:00,
2013-04-06 14:33:00,61.0,50.0,-100.00,NW,313,9.0,17.0,67,0.00,,,0.00,449.000000,,2013-04-06 21:33:00,
2013-04-06 14:43:00,61.0,50.0,-100.00,NW,313,9.0,17.0,67,0.00,,,0.00,449.000000,,2013-04-06 21:43:00,
2013-04-06 14:53:00,61.0,50.0,-100.00,NW,313,9.0,17.0,67,0.00,,,0.00,449.000000,,2013-04-06 21:53:00,
2013-04-06 15:02:00,61.0,50.0,-100.00,NW,313,9.0,17.0,67,0.00,,,0.00,449.000000,,2013-04-06 22:02:00,
2013-04-06 15:11:00,59.0,50.0,-100.00,NW,318,10.0,19.0,71,0.00,,,0.00,307.000000,,2013-04-06 22:11:00,
2013-04-06 15:44:00,59.0,50.0,-100.00,NW,318,10.0,19.0,71,0.00,,,0.00,307.000000,,2013-04-06 22:44:00,
2013-04-06 15:53:00,59.0,50.0,-100.00,NW,318,10.0,19.0,71,0.00,,,0.00,307.000000,,2013-04-06 22:53:00,
2013-04-06 16:03:00,59.0,50.0,-100.00,NW,318,10.0,19.0,71,0.00,,,0.00,307.000000,,2013-04-06 23:03:00,
2013-04-06 16:11:00,62.0,48.0,-100.00,NW,321,11.0,20.0,60,0.00,,,0.00,670.000000,,2013-04-06 23:11:00,
2013-04-06 16:34:00,62.0,48.0,-100.00,NW,321,11.0,20.0,60,0.00,,,0.00,670.000000,,2013-04-06 23:34:00,
2013-04-06 16:43:00,62.0,48.0,-100.00,NW,321,11.0,20.0,60,0.00,,,0.00,670.000000,,2013-04-06 23:43:00,
2013-04-06 16:53:00,62.0,48.0,-100.00,NW,321,11.0,20.0,60,0.00,,,0.00,670.000000,,2013-04-06 23:53:00,
2013-04-06 17:02:00,62.0,48.0,-100.00,NW,321,11.0,20.0,60,0.00,,,0.00,670.000000,,2013-04-07 00:02:00,
2013-04-06 18:11:00,59.0,48.0,-100.00,NW,307,12.0,17.0,66,-99.99,,,0.00,335.000000,,2013-04-07 01:11:00,
2013-04-06 18:33:00,59.0,48.0,-100.00,NW,307,12.0,17.0,66,-99.99,,,0.00,335.000000,,2013-04-07 01:33:00,
2013-04-06 18:43:00,59.0,48.0,-100.00,NW,307,12.0,17.0,66,-99.99,,,0.00,335.000000,,2013-04-07 01:43:00,
2013-04-06 18:53:00,59.0,48.0,-100.00,NW,307,12.0,17.0,66,-99.99,,,0.00,335.000000,,2013-04-07 01:53:00,
2013-04-06 19:02:00,59.0,48.0,-100.00,NW,307,12.0,17.0,66,-99.99,,,0.00,335.000000,,2013-04-07 02:02:00,
2013-04-06 19:11:00,55.0,50.0,-100.00,WNW,301,8.0,15.0,82,0.00,,,0.00,134.000000,,2013-04-07 02:11:00,
2013-04-06 19:43:00,55.0,50.0,-100.00,WNW,301,8.0,15.0,82,0.00,,,0.00,134.000000,,2013-04-07 02:43:00,
2013-04-06 19:52:00,55.0,50.0,-100.00,WNW,301,8.0,15.0,82,0.00,,,0.00,134.000000,,2013-04-07 02:52:00,
2013-04-06 20:02:00,55.0,50.0,-100.00,WNW,301,8.0,15.0,82,0.00,,,0.00,134.000000,,2013-04-07 03:02:00,
2013-04-06 20:11:00,51.0,49.0,-100.00,NNW,328,4.0,9.0,93,0.00,,,0.00,8.000000,,2013-04-07 03:11:00,
2013-04-06 20:35:00,51.0,49.0,-100.00,NNW,328,4.0,9.0,93,0.00,,,0.00,8.000000,,2013-04-07 03:35:00,
2013-04-06 20:44:00,51.0,49.0,-100.00,NNW,328,4.0,9.0,93,0.00,,,0.00,8.000000,,2013-04-07 03:44:00,
2013-04-06 20:54:00,51.0,49.0,-100.00,NNW,328,4.0,9.0,93,0.00,,,0.00,8.000000,,2013-04-07 03:54:00,
2013-04-06 21:03:00,51.0,49.0,-100.00,NNW,328,4.0,9.0,93,0.00,,,0.00,8.000000,,2013-04-07 04:03:00,
2013-04-06 21:11:00,49.0,48.0,-100.00,NW,322,2.0,4.0,95,0.00,,,0.00,0.000000,,2013-04-07 04:11:00,
2013-04-06 21:32:00,49.0,48.0,-100.00,NW,322,2.0,4.0,95,0.00,,,0.00,0.000000,,2013-04-07 04:32:00,
2013-04-06 21:43:00,49.0,48.0,-100.00,NW,322,2.0,4.0,95,0.00,,,0.00,0.000000,,2013-04-07 04:43:00,
2013-04-06 21:53:00,49.0,48.0,-100.00,NW,322,2.0,4.0,95,0.00,,,0.00,0.000000,,2013-04-07 04:53:00,
2013-04-06 22:02:00,49.0,48.0,-100.00,NW,322,2.0,4.0,95,0.00,,,0.00,0.000000,,2013-04-07 05:02:00,
2013-04-06 22:11:00,49.0,49.0,-100.00,NNW,336,2.0,7.0,99,0.00,,,0.00,0.000000,,2013-04-07 05:11:00,
2013-04-06 22:34:00,49.0,49.0,-100.00,NNW,336,2.0,7.0,99,0.00,,,0.00,0.000000,,2013-04-07 05:34:00,
2013-04-06 22:43:00,49.0,49.0,-100.00,NNW,336,2.0,7.0,99,0.00,,,0.00,0.000000,,2013-04-07 05:43:00,
2013-04-06 22:52:00,49.0,49.0,-100.00,NNW,336,2.0,7.0,99,0.00,,,0.00,0.000000,,2013-04-07 05:52:00,
2013-04-06 23:02:00,49.0,49.0,-100.00,NNW,336,2.0,7.0,99,0.00,,,0.00,0.000000,,2013-04-07 06:02:00,
2013-04-06 23:11:00,48.0,47.0,-100.00,ENE,57,3.0,5.0,98,0.00,,,0.00,0.000000,,2013-04-07 06:11:00,
2013-04-06 23:43:00,48.0,47.0,-100.00,ENE,57,3.0,5.0,98,0.00,,,0.00,0.000000,,2013-04-07 06:43:00,
2013-04-06 23:52:00,48.0,47.0,-100.00,ENE,57,3.0,5.0,98,0.00,,,0.00,0.000000,,2013-04-07 06:52:00,